LSZR METAR and TAF | Updated Today

LSZR METAR

St Gallen Altenrhein Airport

Observation time: 29 min. ago

LSZR 200720Z 28006KT CAVOK 18/15 Q1023 NOSIG RMK D

Need help? Read our tutorial on how to read METARs or read the parsed version below.

St Gallen Altenrhein Airport (LSZR) METAR

  • Weather conditions on Fri, 20 May 2022 07:20:00 +0000 (29 min. ago):
  • Present conditions: Dry
  • Clouds: Clear skies
  • Visibility: Greater than 10 km
  • Wind: 280 degrees at 6 knots
  • Temperature: 18 celsius
  • Dew point: 15 celsius
  • Pressure: 1023 millibars
  • Remarks: D


Useful to know...

LSZR TAF

St Gallen Altenrhein Airport

TAF LSZR 200525Z 2006/2015 VRB02KT CAVOK
Observation time: 2:24 hr. ago
Need help? Read our tutorial on how to read TAFs or read the parsed version below.

Parsed version of TAF for St Gallen Altenrhein Airport (LSZR)

  • From 20 May at 06:00 UTC, to day 20 of the month at 15:00 UTC
  • Visibility: Greater than 10 km
  • Wind: Variable at 2